sensor_id;sensor_type;location;lat;lon;timestamp;pressure;altitude;pressure_sealevel;temperature;humidity
54870;BME280;40756;-37.950;145.008;2023-05-10T00:00:12;102786.04;;;14.77;59.54
54870;BME280;40756;-37.950;145.008;2023-05-10T00:02:42;102781.38;;;15.09;59.35
54870;BME280;40756;-37.950;145.008;2023-05-10T00:05:11;102785.02;;;15.07;59.99
54870;BME280;40756;-37.950;145.008;2023-05-10T00:07:41;102787.46;;;14.62;60.30
54870;BME280;40756;-37.950;145.008;2023-05-10T00:10:11;102782.71;;;15.01;57.92
54870;BME280;40756;-37.950;145.008;2023-05-10T00:12:41;102785.88;;;15.38;58.08
54870;BME280;40756;-37.950;145.008;2023-05-10T00:15:11;102798.23;;;14.94;57.27
54870;BME280;40756;-37.950;145.008;2023-05-10T00:17:41;102801.75;;;13.64;59.41
54870;BME280;40756;-37.950;145.008;2023-05-10T00:20:11;102804.67;;;13.32;61.52
54870;BME280;40756;-37.950;145.008;2023-05-10T00:22:41;102808.98;;;13.17;64.18
54870;BME280;40756;-37.950;145.008;2023-05-10T00:25:11;102808.11;;;12.77;64.46
54870;BME280;40756;-37.950;145.008;2023-05-10T00:27:40;102807.55;;;12.98;65.16
54870;BME280;40756;-37.950;145.008;2023-05-10T00:30:10;102808.74;;;12.56;66.29
54870;BME280;40756;-37.950;145.008;2023-05-10T00:32:40;102807.64;;;12.54;66.35
54870;BME280;40756;-37.950;145.008;2023-05-10T00:35:10;102805.79;;;12.28;65.97
54870;BME280;40756;-37.950;145.008;2023-05-10T00:37:39;102804.95;;;12.89;65.90
54870;BME280;40756;-37.950;145.008;2023-05-10T00:40:09;102802.67;;;13.06;64.29
54870;BME280;40756;-37.950;145.008;2023-05-10T00:42:39;102800.14;;;13.35;63.87
54870;BME280;40756;-37.950;145.008;2023-05-10T00:45:09;102802.42;;;13.76;63.21
54870;BME280;40756;-37.950;145.008;2023-05-10T00:47:39;102803.32;;;13.98;62.36
54870;BME280;40756;-37.950;145.008;2023-05-10T00:50:10;102805.00;;;13.70;63.26
54870;BME280;40756;-37.950;145.008;2023-05-10T00:52:40;102803.25;;;13.93;62.07
54870;BME280;40756;-37.950;145.008;2023-05-10T00:55:11;102804.46;;;13.63;63.16
54870;BME280;40756;-37.950;145.008;2023-05-10T00:57:41;102804.04;;;13.63;62.87
54870;BME280;40756;-37.950;145.008;2023-05-10T01:00:12;102806.78;;;13.84;62.61
54870;BME280;40756;-37.950;145.008;2023-05-10T01:02:41;102807.28;;;13.25;63.18
54870;BME280;40756;-37.950;145.008;2023-05-10T01:05:11;102802.77;;;13.63;64.02
54870;BME280;40756;-37.950;145.008;2023-05-10T01:07:41;102805.20;;;13.55;63.87
54870;BME280;40756;-37.950;145.008;2023-05-10T01:10:11;102803.53;;;13.82;63.04
54870;BME280;40756;-37.950;145.008;2023-05-10T01:12:42;102804.68;;;12.97;63.50
54870;BME280;40756;-37.950;145.008;2023-05-10T01:15:12;102798.14;;;13.27;64.12
54870;BME280;40756;-37.950;145.008;2023-05-10T01:17:44;102798.11;;;13.55;64.60
54870;BME280;40756;-37.950;145.008;2023-05-10T01:20:15;102794.72;;;13.55;64.14
54870;BME280;40756;-37.950;145.008;2023-05-10T01:23:13;102790.67;;;14.03;63.32
54870;BME280;40756;-37.950;145.008;2023-05-10T01:26:19;102786.51;;;14.22;62.22
54870;BME280;40756;-37.950;145.008;2023-05-10T01:29:27;102787.80;;;14.30;62.26
54870;BME280;40756;-37.950;145.008;2023-05-10T01:32:21;102784.07;;;13.68;60.98
54870;BME280;40756;-37.950;145.008;2023-05-10T01:34:59;102780.89;;;14.20;60.95
54870;BME280;40756;-37.950;145.008;2023-05-10T01:37:39;102777.91;;;14.49;60.58
54870;BME280;40756;-37.950;145.008;2023-05-10T01:40:16;102776.81;;;14.56;60.26
54870;BME280;40756;-37.950;145.008;2023-05-10T01:42:52;102775.33;;;14.59;59.28
54870;BME280;40756;-37.950;145.008;2023-05-10T01:45:28;102770.96;;;14.44;58.67
54870;BME280;40756;-37.950;145.008;2023-05-10T01:48:08;102768.70;;;14.82;58.42
54870;BME280;40756;-37.950;145.008;2023-05-10T01:50:42;102764.73;;;14.88;58.05
54870;BME280;40756;-37.950;145.008;2023-05-10T01:53:14;102768.17;;;14.03;58.87
54870;BME280;40756;-37.950;145.008;2023-05-10T01:55:49;102763.93;;;14.05;59.12
54870;BME280;40756;-37.950;145.008;2023-05-10T01:58:22;102760.52;;;13.56;58.17
54870;BME280;40756;-37.950;145.008;2023-05-10T02:00:55;102755.08;;;14.20;57.82
54870;BME280;40756;-37.950;145.008;2023-05-10T02:03:25;102754.70;;;14.15;57.33
54870;BME280;40756;-37.950;145.008;2023-05-10T02:05:57;102759.73;;;13.85;57.67
54870;BME280;40756;-37.950;145.008;2023-05-10T02:08:27;102751.60;;;14.57;58.76
54870;BME280;40756;-37.950;145.008;2023-05-10T02:10:57;102751.65;;;14.20;59.84
54870;BME280;40756;-37.950;145.008;2023-05-10T02:13:28;102753.63;;;13.13;62.12
54870;BME280;40756;-37.950;145.008;2023-05-10T02:15:59;102748.75;;;13.04;64.49
54870;BME280;40756;-37.950;145.008;2023-05-10T02:18:33;102747.75;;;13.42;63.38
54870;BME280;40756;-37.950;145.008;2023-05-10T02:21:03;102741.90;;;14.45;62.01
54870;BME280;40756;-37.950;145.008;2023-05-10T02:23:34;102735.31;;;14.18;61.34
54870;BME280;40756;-37.950;145.008;2023-05-10T02:26:05;102737.03;;;14.09;61.25
54870;BME280;40756;-37.950;145.008;2023-05-10T02:28:36;102736.32;;;14.57;61.38
54870;BME280;40756;-37.950;145.008;2023-05-10T02:31:07;102736.15;;;14.07;62.37
54870;BME280;40756;-37.950;145.008;2023-05-10T02:33:38;102726.94;;;14.68;61.09
54870;BME280;40756;-37.950;145.008;2023-05-10T02:36:10;102723.05;;;14.49;60.51
54870;BME280;40756;-37.950;145.008;2023-05-10T02:38:41;102722.27;;;14.34;60.78
54870;BME280;40756;-37.950;145.008;2023-05-10T02:41:11;102718.64;;;14.69;59.96
54870;BME280;40756;-37.950;145.008;2023-05-10T02:43:43;102719.04;;;13.95;59.61
54870;BME280;40756;-37.950;145.008;2023-05-10T02:46:13;102717.47;;;14.49;59.14
54870;BME280;40756;-37.950;145.008;2023-05-10T02:48:42;102713.77;;;13.91;58.78
54870;BME280;40756;-37.950;145.008;2023-05-10T02:51:13;102709.15;;;14.15;59.53
54870;BME280;40756;-37.950;145.008;2023-05-10T02:53:45;102699.65;;;14.46;59.09
54870;BME280;40756;-37.950;145.008;2023-05-10T02:56:22;102697.22;;;14.80;58.02
54870;BME280;40756;-37.950;145.008;2023-05-10T02:58:53;102693.64;;;14.95;55.96
54870;BME280;40756;-37.950;145.008;2023-05-10T03:01:22;102687.60;;;14.89;55.20
54870;BME280;40756;-37.950;145.008;2023-05-10T03:03:51;102689.07;;;14.88;55.29
54870;BME280;40756;-37.950;145.008;2023-05-10T03:06:21;102688.16;;;14.32;52.90
54870;BME280;40756;-37.950;145.008;2023-05-10T03:08:51;102682.44;;;14.62;53.19
54870;BME280;40756;-37.950;145.008;2023-05-10T03:11:35;102680.05;;;14.85;54.37
54870;BME280;40756;-37.950;145.008;2023-05-10T03:14:16;102671.41;;;14.94;54.08
54870;BME280;40756;-37.950;145.008;2023-05-10T03:16:51;102670.65;;;15.22;52.64
54870;BME280;40756;-37.950;145.008;2023-05-10T03:19:26;102667.11;;;15.34;53.19
54870;BME280;40756;-37.950;145.008;2023-05-10T03:21:59;102661.25;;;15.05;53.77
54870;BME280;40756;-37.950;145.008;2023-05-10T03:24:34;102659.37;;;15.05;54.63
54870;BME280;40756;-37.950;145.008;2023-05-10T03:27:05;102659.97;;;15.41;53.94
54870;BME280;40756;-37.950;145.008;2023-05-10T03:29:34;102659.47;;;15.48;52.85
54870;BME280;40756;-37.950;145.008;2023-05-10T03:32:05;102659.19;;;14.52;52.85
54870;BME280;40756;-37.950;145.008;2023-05-10T03:34:35;102656.84;;;15.15;52.99
54870;BME280;40756;-37.950;145.008;2023-05-10T03:37:10;102656.91;;;15.67;51.88
54870;BME280;40756;-37.950;145.008;2023-05-10T03:39:40;102655.83;;;15.77;51.30
54870;BME280;40756;-37.950;145.008;2023-05-10T03:42:09;102656.85;;;15.70;51.89
54870;BME280;40756;-37.950;145.008;2023-05-10T03:44:39;102655.06;;;15.13;52.21
54870;BME280;40756;-37.950;145.008;2023-05-10T03:47:08;102651.66;;;15.56;51.56
54870;BME280;40756;-37.950;145.008;2023-05-10T03:49:38;102650.57;;;15.35;50.96
54870;BME280;40756;-37.950;145.008;2023-05-10T03:52:08;102649.12;;;15.76;51.75
54870;BME280;40756;-37.950;145.008;2023-05-10T03:54:38;102647.14;;;15.58;51.49
54870;BME280;40756;-37.950;145.008;2023-05-10T03:57:07;102645.24;;;15.89;51.49
54870;BME280;40756;-37.950;145.008;2023-05-10T03:59:37;102643.48;;;15.56;52.15
54870;BME280;40756;-37.950;145.008;2023-05-10T04:02:06;102643.21;;;15.02;52.54
54870;BME280;40756;-37.950;145.008;2023-05-10T04:04:36;102643.65;;;15.50;50.72
54870;BME280;40756;-37.950;145.008;2023-05-10T04:07:06;102647.30;;;15.60;50.21
54870;BME280;40756;-37.950;145.008;2023-05-10T04:09:36;102649.99;;;15.78;51.98
54870;BME280;40756;-37.950;145.008;2023-05-10T04:12:05;102652.70;;;15.84;53.19
54870;BME280;40756;-37.950;145.008;2023-05-10T04:14:35;102655.53;;;15.28;53.23
54870;BME280;40756;-37.950;145.008;2023-05-10T04:17:04;102657.48;;;14.68;52.99
54870;BME280;40756;-37.950;145.008;2023-05-10T04:19:34;102659.28;;;15.21;53.19
54870;BME280;40756;-37.950;145.008;2023-05-10T04:22:04;102657.23;;;15.03;54.62
54870;BME280;40756;-37.950;145.008;2023-05-10T04:24:34;102661.78;;;14.28;56.49
54870;BME280;40756;-37.950;145.008;2023-05-10T04:27:03;102661.28;;;14.94;56.35
54870;BME280;40756;-37.950;145.008;2023-05-10T04:29:33;102665.46;;;14.10;58.76
54870;BME280;40756;-37.950;145.008;2023-05-10T04:32:02;102663.75;;;14.21;60.15
54870;BME280;40756;-37.950;145.008;2023-05-10T04:34:32;102662.97;;;14.34;60.30
54870;BME280;40756;-37.950;145.008;2023-05-10T04:37:02;102667.01;;;13.17;61.40
54870;BME280;40756;-37.950;145.008;2023-05-10T04:39:31;102659.90;;;14.17;61.04
54870;BME280;40756;-37.950;145.008;2023-05-10T04:42:01;102660.51;;;15.42;58.00
54870;BME280;40756;-37.950;145.008;2023-05-10T04:44:32;102655.31;;;16.08;55.99
54870;BME280;40756;-37.950;145.008;2023-05-10T04:47:01;102652.64;;;15.96;54.09
54870;BME280;40756;-37.950;145.008;2023-05-10T04:49:30;102649.25;;;15.59;53.26
54870;BME280;40756;-37.950;145.008;2023-05-10T04:52:00;102647.80;;;15.57;52.65
54870;BME280;40756;-37.950;145.008;2023-05-10T04:54:30;102646.76;;;15.43;52.90
54870;BME280;40756;-37.950;145.008;2023-05-10T04:57:00;102648.75;;;15.76;54.36
54870;BME280;40756;-37.950;145.008;2023-05-10T04:59:30;102647.63;;;15.52;52.07
54870;BME280;40756;-37.950;145.008;2023-05-10T05:01:59;102648.30;;;15.61;52.35
54870;BME280;40756;-37.950;145.008;2023-05-10T05:04:30;102651.81;;;15.29;54.05
54870;BME280;40756;-37.950;145.008;2023-05-10T05:06:59;102651.95;;;15.16;52.13
54870;BME280;40756;-37.950;145.008;2023-05-10T05:09:28;102651.05;;;14.64;51.23
54870;BME280;40756;-37.950;145.008;2023-05-10T05:11:58;102656.03;;;15.14;51.19
54870;BME280;40756;-37.950;145.008;2023-05-10T05:14:28;102654.22;;;14.52;49.94
54870;BME280;40756;-37.950;145.008;2023-05-10T05:16:57;102656.16;;;14.99;50.65
54870;BME280;40756;-37.950;145.008;2023-05-10T05:19:27;102657.94;;;15.41;50.34
54870;BME280;40756;-37.950;145.008;2023-05-10T05:21:57;102657.09;;;15.75;50.12
54870;BME280;40756;-37.950;145.008;2023-05-10T05:24:26;102654.53;;;15.68;49.69
54870;BME280;40756;-37.950;145.008;2023-05-10T05:26:56;102653.13;;;15.02;49.85
54870;BME280;40756;-37.950;145.008;2023-05-10T05:29:25;102649.69;;;15.43;49.18
54870;BME280;40756;-37.950;145.008;2023-05-10T05:31:55;102652.05;;;15.16;49.13
54870;BME280;40756;-37.950;145.008;2023-05-10T05:34:25;102650.14;;;14.74;49.78
54870;BME280;40756;-37.950;145.008;2023-05-10T05:36:54;102651.51;;;15.05;49.52
54870;BME280;40756;-37.950;145.008;2023-05-10T05:39:24;102650.65;;;15.53;50.02
54870;BME280;40756;-37.950;145.008;2023-05-10T05:41:54;102649.40;;;15.38;49.91
54870;BME280;40756;-37.950;145.008;2023-05-10T05:44:23;102652.65;;;15.17;49.62
54870;BME280;40756;-37.950;145.008;2023-05-10T05:46:54;102652.04;;;15.25;50.15
54870;BME280;40756;-37.950;145.008;2023-05-10T05:49:23;102648.57;;;15.78;49.18
54870;BME280;40756;-37.950;145.008;2023-05-10T05:51:53;102649.49;;;15.37;50.67
54870;BME280;40756;-37.950;145.008;2023-05-10T05:54:23;102645.43;;;15.07;49.26
54870;BME280;40756;-37.950;145.008;2023-05-10T05:56:55;102645.21;;;15.49;49.39
54870;BME280;40756;-37.950;145.008;2023-05-10T05:59:24;102649.48;;;15.49;48.80
54870;BME280;40756;-37.950;145.008;2023-05-10T06:01:54;102649.87;;;15.62;48.90
54870;BME280;40756;-37.950;145.008;2023-05-10T06:04:24;102651.72;;;15.39;48.61
54870;BME280;40756;-37.950;145.008;2023-05-10T06:06:53;102651.90;;;15.10;49.58
54870;BME280;40756;-37.950;145.008;2023-05-10T06:09:23;102649.60;;;15.47;48.12
54870;BME280;40756;-37.950;145.008;2023-05-10T06:11:53;102648.77;;;15.24;48.80
54870;BME280;40756;-37.950;145.008;2023-05-10T06:14:22;102651.64;;;15.26;49.13
54870;BME280;40756;-37.950;145.008;2023-05-10T06:16:52;102651.56;;;15.63;48.90
54870;BME280;40756;-37.950;145.008;2023-05-10T06:19:21;102648.43;;;15.39;49.42
54870;BME280;40756;-37.950;145.008;2023-05-10T06:21:51;102649.43;;;15.22;49.48
54870;BME280;40756;-37.950;145.008;2023-05-10T06:24:21;102654.27;;;14.96;51.44
54870;BME280;40756;-37.950;145.008;2023-05-10T06:26:50;102653.10;;;14.96;52.31
54870;BME280;40756;-37.950;145.008;2023-05-10T06:29:20;102655.48;;;14.55;54.30
54870;BME280;40756;-37.950;145.008;2023-05-10T06:31:50;102654.74;;;14.51;53.80
54870;BME280;40756;-37.950;145.008;2023-05-10T06:34:19;102658.34;;;14.79;54.89
54870;BME280;40756;-37.950;145.008;2023-05-10T06:36:49;102658.94;;;14.90;55.05
54870;BME280;40756;-37.950;145.008;2023-05-10T06:39:19;102659.30;;;14.96;54.50
54870;BME280;40756;-37.950;145.008;2023-05-10T06:41:49;102663.07;;;14.56;55.17
54870;BME280;40756;-37.950;145.008;2023-05-10T06:44:19;102660.70;;;14.58;53.71
54870;BME280;40756;-37.950;145.008;2023-05-10T06:46:48;102662.54;;;15.07;53.40
54870;BME280;40756;-37.950;145.008;2023-05-10T06:49:18;102665.06;;;14.63;53.13
54870;BME280;40756;-37.950;145.008;2023-05-10T06:51:48;102663.37;;;14.94;53.04
54870;BME280;40756;-37.950;145.008;2023-05-10T06:54:17;102670.88;;;14.90;54.10
54870;BME280;40756;-37.950;145.008;2023-05-10T06:56:47;102674.30;;;13.99;54.57
54870;BME280;40756;-37.950;145.008;2023-05-10T06:59:17;102673.68;;;14.78;53.95
54870;BME280;40756;-37.950;145.008;2023-05-10T07:01:47;102672.59;;;15.16;53.42
54870;BME280;40756;-37.950;145.008;2023-05-10T07:04:17;102670.10;;;14.90;56.98
54870;BME280;40756;-37.950;145.008;2023-05-10T07:06:46;102670.10;;;15.40;57.13
54870;BME280;40756;-37.950;145.008;2023-05-10T07:09:16;102672.54;;;15.34;52.22
54870;BME280;40756;-37.950;145.008;2023-05-10T07:11:46;102673.95;;;15.46;51.76
54870;BME280;40756;-37.950;145.008;2023-05-10T07:14:15;102675.89;;;15.41;52.20
54870;BME280;40756;-37.950;145.008;2023-05-10T07:16:45;102674.67;;;15.64;51.96
54870;BME280;40756;-37.950;145.008;2023-05-10T07:19:15;102675.70;;;15.33;51.53
54870;BME280;40756;-37.950;145.008;2023-05-10T07:21:44;102672.16;;;15.48;50.70
54870;BME280;40756;-37.950;145.008;2023-05-10T07:24:14;102671.98;;;15.34;51.86
54870;BME280;40756;-37.950;145.008;2023-05-10T07:26:44;102675.81;;;15.08;52.03
54870;BME280;40756;-37.950;145.008;2023-05-10T07:29:13;102677.86;;;15.04;51.96
54870;BME280;40756;-37.950;145.008;2023-05-10T07:31:43;102677.58;;;15.16;52.88
54870;BME280;40756;-37.950;145.008;2023-05-10T07:34:12;102682.15;;;15.30;53.07
54870;BME280;40756;-37.950;145.008;2023-05-10T07:36:42;102679.22;;;15.15;53.39
54870;BME280;40756;-37.950;145.008;2023-05-10T07:39:12;102680.00;;;14.99;53.69
54870;BME280;40756;-37.950;145.008;2023-05-10T07:41:41;102679.70;;;14.80;53.63
54870;BME280;40756;-37.950;145.008;2023-05-10T07:44:11;102675.90;;;14.85;54.17
54870;BME280;40756;-37.950;145.008;2023-05-10T07:46:41;102677.21;;;14.85;54.11
54870;BME280;40756;-37.950;145.008;2023-05-10T07:49:10;102677.76;;;14.68;54.96
54870;BME280;40756;-37.950;145.008;2023-05-10T07:51:40;102677.06;;;14.99;54.94
54870;BME280;40756;-37.950;145.008;2023-05-10T07:54:10;102682.66;;;15.12;54.82
54870;BME280;40756;-37.950;145.008;2023-05-10T07:56:39;102684.15;;;14.95;54.76
54870;BME280;40756;-37.950;145.008;2023-05-10T07:59:09;102689.68;;;14.74;55.47
54870;BME280;40756;-37.950;145.008;2023-05-10T08:01:40;102691.13;;;14.90;54.90
54870;BME280;40756;-37.950;145.008;2023-05-10T08:04:09;102689.70;;;14.79;55.00
54870;BME280;40756;-37.950;145.008;2023-05-10T08:06:39;102693.32;;;14.92;54.32
54870;BME280;40756;-37.950;145.008;2023-05-10T08:09:09;102692.71;;;14.33;54.98
54870;BME280;40756;-37.950;145.008;2023-05-10T08:11:38;102694.98;;;14.32;54.70
54870;BME280;40756;-37.950;145.008;2023-05-10T08:14:08;102695.15;;;14.57;54.55
54870;BME280;40756;-37.950;145.008;2023-05-10T08:16:38;102695.69;;;14.65;54.63
54870;BME280;40756;-37.950;145.008;2023-05-10T08:19:07;102697.45;;;14.28;54.77
54870;BME280;40756;-37.950;145.008;2023-05-10T08:21:37;102699.58;;;14.62;54.31
54870;BME280;40756;-37.950;145.008;2023-05-10T08:24:07;102699.78;;;14.25;54.54
54870;BME280;40756;-37.950;145.008;2023-05-10T08:26:37;102700.38;;;14.70;53.11
54870;BME280;40756;-37.950;145.008;2023-05-10T08:29:06;102701.63;;;14.32;54.41
54870;BME280;40756;-37.950;145.008;2023-05-10T08:31:36;102703.95;;;14.43;54.31
54870;BME280;40756;-37.950;145.008;2023-05-10T08:34:05;102706.46;;;14.19;56.16
54870;BME280;40756;-37.950;145.008;2023-05-10T08:36:35;102708.40;;;13.99;55.60
54870;BME280;40756;-37.950;145.008;2023-05-10T08:39:05;102713.96;;;13.71;56.80
54870;BME280;40756;-37.950;145.008;2023-05-10T08:41:36;102716.18;;;13.41;57.19
54870;BME280;40756;-37.950;145.008;2023-05-10T08:44:09;102717.84;;;13.91;57.27
54870;BME280;40756;-37.950;145.008;2023-05-10T08:46:39;102719.34;;;12.49;59.69
54870;BME280;40756;-37.950;145.008;2023-05-10T08:49:10;102722.41;;;13.33;60.11
54870;BME280;40756;-37.950;145.008;2023-05-10T08:51:49;102721.02;;;12.97;60.31
54870;BME280;40756;-37.950;145.008;2023-05-10T08:54:19;102726.26;;;12.68;59.93
54870;BME280;40756;-37.950;145.008;2023-05-10T08:56:48;102723.37;;;12.72;59.55
54870;BME280;40756;-37.950;145.008;2023-05-10T08:59:18;102727.91;;;12.91;59.51
54870;BME280;40756;-37.950;145.008;2023-05-10T09:01:49;102729.12;;;13.00;58.36
54870;BME280;40756;-37.950;145.008;2023-05-10T09:04:20;102730.88;;;13.15;58.58
54870;BME280;40756;-37.950;145.008;2023-05-10T09:06:50;102728.87;;;13.03;57.06
54870;BME280;40756;-37.950;145.008;2023-05-10T09:09:20;102728.53;;;13.16;58.14
54870;BME280;40756;-37.950;145.008;2023-05-10T09:11:50;102727.76;;;13.45;56.89
54870;BME280;40756;-37.950;145.008;2023-05-10T09:14:21;102724.57;;;13.29;57.82
54870;BME280;40756;-37.950;145.008;2023-05-10T09:16:52;102723.63;;;13.41;56.10
54870;BME280;40756;-37.950;145.008;2023-05-10T09:19:22;102719.92;;;13.71;55.48
54870;BME280;40756;-37.950;145.008;2023-05-10T09:21:51;102716.03;;;14.04;54.33
54870;BME280;40756;-37.950;145.008;2023-05-10T09:24:26;102710.58;;;14.06;53.67
54870;BME280;40756;-37.950;145.008;2023-05-10T09:26:57;102717.04;;;13.28;54.65
54870;BME280;40756;-37.950;145.008;2023-05-10T09:29:28;102715.35;;;13.48;52.78
54870;BME280;40756;-37.950;145.008;2023-05-10T09:32:07;102713.10;;;14.02;51.22
54870;BME280;40756;-37.950;145.008;2023-05-10T09:34:37;102711.37;;;14.07;51.65
54870;BME280;40756;-37.950;145.008;2023-05-10T09:37:07;102712.45;;;13.65;51.66
54870;BME280;40756;-37.950;145.008;2023-05-10T09:39:38;102707.94;;;13.90;51.63
54870;BME280;40756;-37.950;145.008;2023-05-10T09:42:09;102705.74;;;13.96;52.04
54870;BME280;40756;-37.950;145.008;2023-05-10T09:44:38;102702.21;;;14.26;51.21
54870;BME280;40756;-37.950;145.008;2023-05-10T09:47:08;102698.01;;;14.20;51.51
54870;BME280;40756;-37.950;145.008;2023-05-10T09:49:38;102698.07;;;14.34;52.15
54870;BME280;40756;-37.950;145.008;2023-05-10T09:52:08;102693.16;;;14.11;51.80
54870;BME280;40756;-37.950;145.008;2023-05-10T09:54:38;102690.63;;;14.19;52.02
54870;BME280;40756;-37.950;145.008;2023-05-10T09:57:22;102691.92;;;14.08;52.80
54870;BME280;40756;-37.950;145.008;2023-05-10T09:59:51;102695.61;;;14.14;53.56
54870;BME280;40756;-37.950;145.008;2023-05-10T10:02:22;102695.70;;;13.86;54.22
54870;BME280;40756;-37.950;145.008;2023-05-10T10:04:57;102696.31;;;13.92;53.19
54870;BME280;40756;-37.950;145.008;2023-05-10T10:07:27;102694.96;;;14.02;52.80
54870;BME280;40756;-37.950;145.008;2023-05-10T10:09:56;102692.27;;;14.16;53.07
54870;BME280;40756;-37.950;145.008;2023-05-10T10:12:26;102694.93;;;13.64;53.60
54870;BME280;40756;-37.950;145.008;2023-05-10T10:14:56;102694.85;;;13.83;53.68
54870;BME280;40756;-37.950;145.008;2023-05-10T10:17:28;102698.98;;;13.10;55.52
54870;BME280;40756;-37.950;145.008;2023-05-10T10:20:01;102698.53;;;13.44;55.83
54870;BME280;40756;-37.950;145.008;2023-05-10T10:22:31;102692.13;;;13.54;56.45
54870;BME280;40756;-37.950;145.008;2023-05-10T10:25:01;102688.61;;;13.76;57.01
54870;BME280;40756;-37.950;145.008;2023-05-10T10:27:38;102685.78;;;13.80;56.94
54870;BME280;40756;-37.950;145.008;2023-05-10T10:30:20;102690.70;;;13.78;58.03
54870;BME280;40756;-37.950;145.008;2023-05-10T10:33:33;102683.45;;;13.95;57.25
54870;BME280;40756;-37.950;145.008;2023-05-10T10:36:06;102682.67;;;14.16;56.66
54870;BME280;40756;-37.950;145.008;2023-05-10T10:38:56;102678.28;;;14.07;56.34
54870;BME280;40756;-37.950;145.008;2023-05-10T10:41:32;102679.12;;;14.49;55.83
54870;BME280;40756;-37.950;145.008;2023-05-10T10:46:17;102678.12;;;15.01;55.46
54870;BME280;40756;-37.950;145.008;2023-05-10T10:48:50;102675.92;;;14.41;55.26
54870;BME280;40756;-37.950;145.008;2023-05-10T10:51:21;102681.64;;;14.49;54.70
54870;BME280;40756;-37.950;145.008;2023-05-10T10:53:51;102679.21;;;14.58;55.26
54870;BME280;40756;-37.950;145.008;2023-05-10T10:56:23;102676.14;;;14.67;54.86
54870;BME280;40756;-37.950;145.008;2023-05-10T10:58:53;102676.80;;;14.65;55.24
54870;BME280;40756;-37.950;145.008;2023-05-10T11:01:33;102678.19;;;14.32;55.48
54870;BME280;40756;-37.950;145.008;2023-05-10T11:04:20;102682.52;;;14.54;55.58
54870;BME280;40756;-37.950;145.008;2023-05-10T11:06:49;102684.22;;;14.20;55.57
54870;BME280;40756;-37.950;145.008;2023-05-10T11:09:19;102685.93;;;14.19;55.43
54870;BME280;40756;-37.950;145.008;2023-05-10T11:11:54;102685.89;;;14.30;55.64
54870;BME280;40756;-37.950;145.008;2023-05-10T11:14:24;102686.30;;;14.16;55.92
54870;BME280;40756;-37.950;145.008;2023-05-10T11:16:54;102688.12;;;14.29;55.86
54870;BME280;40756;-37.950;145.008;2023-05-10T11:19:28;102689.38;;;14.16;56.24
54870;BME280;40756;-37.950;145.008;2023-05-10T11:22:14;102689.57;;;14.09;56.33
54870;BME280;40756;-37.950;145.008;2023-05-10T11:24:57;102687.30;;;14.02;56.78
54870;BME280;40756;-37.950;145.008;2023-05-10T11:27:27;102685.31;;;14.55;56.66
54870;BME280;40756;-37.950;145.008;2023-05-10T11:29:56;102685.32;;;13.72;57.29
54870;BME280;40756;-37.950;145.008;2023-05-10T11:32:26;102684.88;;;13.98;57.07
54870;BME280;40756;-37.950;145.008;2023-05-10T11:34:56;102684.78;;;13.76;57.09
54870;BME280;40756;-37.950;145.008;2023-05-10T11:37:28;102682.34;;;13.88;57.29
54870;BME280;40756;-37.950;145.008;2023-05-10T11:39:58;102684.43;;;13.66;57.74
54870;BME280;40756;-37.950;145.008;2023-05-10T11:42:28;102692.03;;;13.53;57.79
54870;BME280;40756;-37.950;145.008;2023-05-10T11:44:58;102692.87;;;13.58;57.89
54870;BME280;40756;-37.950;145.008;2023-05-10T11:47:29;102693.96;;;13.64;58.06
54870;BME280;40756;-37.950;145.008;2023-05-10T11:49:58;102693.79;;;13.79;57.66
54870;BME280;40756;-37.950;145.008;2023-05-10T11:52:28;102694.75;;;13.90;57.32
54870;BME280;40756;-37.950;145.008;2023-05-10T11:54:58;102695.92;;;13.92;57.31
54870;BME280;40756;-37.950;145.008;2023-05-10T11:57:28;102698.01;;;14.04;57.71
54870;BME280;40756;-37.950;145.008;2023-05-10T11:59:59;102700.26;;;14.00;57.81
54870;BME280;40756;-37.950;145.008;2023-05-10T12:02:30;102703.41;;;14.03;57.59
54870;BME280;40756;-37.950;145.008;2023-05-10T12:05:00;102700.02;;;14.00;57.66
54870;BME280;40756;-37.950;145.008;2023-05-10T12:07:30;102699.25;;;14.33;59.99
54870;BME280;40756;-37.950;145.008;2023-05-10T12:10:09;102694.58;;;14.12;57.70
54870;BME280;40756;-37.950;145.008;2023-05-10T12:12:40;102692.39;;;14.07;57.10
54870;BME280;40756;-37.950;145.008;2023-05-10T12:15:17;102692.73;;;13.91;57.03
54870;BME280;40756;-37.950;145.008;2023-05-10T12:17:48;102692.10;;;13.68;57.01
54870;BME280;40756;-37.950;145.008;2023-05-10T12:20:21;102692.77;;;13.55;57.28
54870;BME280;40756;-37.950;145.008;2023-05-10T12:22:53;102692.31;;;13.84;56.90
54870;BME280;40756;-37.950;145.008;2023-05-10T12:25:24;102694.87;;;13.99;57.37
54870;BME280;40756;-37.950;145.008;2023-05-10T12:27:59;102690.89;;;13.80;57.25
54870;BME280;40756;-37.950;145.008;2023-05-10T12:30:30;102693.29;;;13.68;57.51
54870;BME280;40756;-37.950;145.008;2023-05-10T12:33:02;102691.43;;;13.68;57.68
54870;BME280;40756;-37.950;145.008;2023-05-10T12:35:33;102693.31;;;13.66;57.86
54870;BME280;40756;-37.950;145.008;2023-05-10T12:38:26;102690.28;;;13.56;58.11
54870;BME280;40756;-37.950;145.008;2023-05-10T12:40:56;102690.07;;;13.95;57.94
54870;BME280;40756;-37.950;145.008;2023-05-10T12:43:26;102690.04;;;13.78;57.67